createdAt,value
2023-05-08T00:00:07.184Z,816.00
2023-05-08T00:01:07.224Z,815.00
2023-05-08T00:02:07.172Z,823.00
2023-05-08T00:03:07.309Z,824.00
2023-05-08T00:04:07.323Z,810.00
2023-05-08T00:05:07.259Z,813.00
2023-05-08T00:06:07.247Z,814.00
2023-05-08T00:07:07.262Z,828.00
2023-05-08T00:08:07.206Z,819.00
2023-05-08T00:09:07.202Z,817.00
2023-05-08T00:10:07.264Z,815.00
2023-05-08T00:11:07.245Z,823.00
2023-05-08T00:12:07.235Z,815.00
2023-05-08T00:13:07.268Z,824.00
2023-05-08T00:14:07.246Z,821.00
2023-05-08T00:15:07.599Z,795.00
2023-05-08T00:16:07.261Z,823.00
2023-05-08T00:17:07.301Z,813.00
2023-05-08T00:18:07.299Z,818.00
2023-05-08T00:19:07.251Z,823.00
2023-05-08T00:20:07.264Z,822.00
2023-05-08T00:21:07.297Z,818.00
2023-05-08T00:22:07.300Z,816.00
2023-05-08T00:23:07.312Z,818.00
2023-05-08T00:24:07.286Z,828.00
2023-05-08T00:25:07.292Z,804.00
2023-05-08T00:26:07.360Z,811.00
2023-05-08T00:27:07.304Z,814.00
2023-05-08T00:28:07.407Z,818.00
2023-05-08T00:29:07.345Z,820.00
2023-05-08T00:30:07.360Z,820.00
2023-05-08T00:31:07.376Z,810.00
2023-05-08T00:32:07.421Z,812.00
2023-05-08T00:33:07.423Z,809.00
2023-05-08T00:34:07.358Z,815.00
2023-05-08T00:35:07.496Z,814.00
2023-05-08T00:36:07.424Z,813.00
2023-05-08T00:37:07.418Z,820.00
2023-05-08T00:38:07.390Z,812.00
2023-05-08T00:39:07.425Z,818.00
2023-05-08T00:40:07.464Z,823.00
2023-05-08T00:41:07.455Z,825.00
2023-05-08T00:42:07.462Z,817.00
2023-05-08T00:43:07.450Z,815.00
2023-05-08T00:44:07.469Z,816.00
2023-05-08T00:45:07.474Z,812.00
2023-05-08T00:46:07.562Z,825.00
2023-05-08T00:47:07.540Z,823.00
2023-05-08T00:48:07.531Z,830.00
2023-05-08T00:49:07.537Z,817.00
2023-05-08T00:50:07.565Z,825.00
2023-05-08T00:51:07.630Z,824.00
2023-05-08T00:52:07.585Z,824.00
2023-05-08T00:53:07.648Z,806.00
2023-05-08T00:54:07.631Z,800.00
2023-05-08T00:55:08.059Z,803.00
2023-05-08T00:56:07.624Z,807.00
2023-05-08T00:57:07.634Z,814.00
2023-05-08T00:58:07.652Z,813.00
2023-05-08T00:59:07.657Z,805.00
2023-05-08T01:00:07.712Z,804.00
2023-05-08T01:01:07.751Z,807.00
2023-05-08T01:02:07.684Z,807.00
2023-05-08T01:03:07.764Z,808.00
2023-05-08T01:04:07.713Z,805.00
2023-05-08T01:05:07.720Z,806.00
2023-05-08T01:06:07.709Z,806.00
2023-05-08T01:07:07.751Z,806.00
2023-05-08T01:08:07.748Z,812.00
2023-05-08T01:09:07.761Z,805.00
2023-05-08T01:10:07.778Z,811.00
2023-05-08T01:11:07.767Z,825.00
2023-05-08T01:12:07.767Z,822.00
2023-05-08T01:13:07.885Z,820.00
2023-05-08T01:14:07.802Z,820.00
2023-05-08T01:15:07.817Z,806.00
2023-05-08T01:16:07.834Z,797.00
2023-05-08T01:17:07.856Z,804.00
2023-05-08T01:18:07.850Z,810.00
2023-05-08T01:19:07.865Z,802.00
2023-05-08T01:20:07.871Z,808.00
2023-05-08T01:21:07.882Z,816.00
2023-05-08T01:22:07.885Z,808.00
2023-05-08T01:23:07.895Z,815.00
2023-05-08T01:24:07.914Z,819.00
2023-05-08T01:25:07.975Z,814.00
2023-05-08T01:26:07.961Z,817.00
2023-05-08T01:27:07.941Z,816.00
2023-05-08T01:28:07.988Z,812.00
2023-05-08T01:29:07.968Z,806.00
2023-05-08T01:30:08.004Z,810.00
2023-05-08T01:31:07.975Z,804.00
2023-05-08T01:32:07.977Z,809.00
2023-05-08T01:33:08.081Z,796.00
2023-05-08T01:34:08.101Z,817.00
2023-05-08T01:35:08.044Z,807.00
2023-05-08T01:36:08.056Z,805.00
2023-05-08T01:37:08.069Z,808.00
2023-05-08T01:38:08.086Z,810.00
2023-05-08T01:39:08.095Z,811.00
2023-05-08T01:40:08.133Z,804.00
2023-05-08T01:41:08.091Z,799.00
2023-05-08T01:42:08.110Z,809.00
2023-05-08T01:43:08.117Z,813.00
2023-05-08T01:44:08.154Z,804.00
2023-05-08T01:45:08.158Z,801.00
2023-05-08T01:46:08.206Z,811.00
2023-05-08T01:47:08.222Z,804.00
2023-05-08T01:48:08.260Z,800.00
2023-05-08T01:49:08.223Z,808.00
2023-05-08T01:50:08.309Z,809.00
2023-05-08T01:51:08.271Z,809.00
2023-05-08T01:52:08.261Z,813.00
2023-05-08T01:53:08.305Z,811.00
2023-05-08T01:54:10.119Z,803.00
2023-05-08T01:55:08.292Z,807.00
2023-05-08T01:56:08.306Z,796.00
2023-05-08T01:57:08.342Z,805.00
2023-05-08T01:58:08.307Z,806.00
2023-05-08T01:59:08.376Z,798.00
2023-05-08T02:00:08.350Z,808.00
2023-05-08T02:01:08.413Z,803.00
2023-05-08T02:02:08.386Z,807.00
2023-05-08T02:03:08.423Z,802.00
2023-05-08T02:04:08.453Z,825.00
2023-05-08T02:05:08.405Z,816.00
2023-05-08T02:06:08.455Z,812.00
2023-05-08T02:07:08.466Z,817.00
2023-05-08T02:08:08.506Z,809.00
2023-05-08T02:09:08.510Z,819.00
2023-05-08T02:10:08.524Z,810.00
2023-05-08T02:11:08.515Z,817.00
2023-05-08T02:12:08.516Z,813.00
2023-05-08T02:13:08.588Z,807.00
2023-05-08T02:14:08.545Z,811.00
2023-05-08T02:15:08.573Z,801.00
2023-05-08T02:16:08.610Z,810.00
2023-05-08T02:17:08.612Z,809.00
2023-05-08T02:18:08.660Z,816.00
2023-05-08T02:19:08.654Z,810.00
2023-05-08T02:20:08.653Z,819.00
2023-05-08T02:21:08.653Z,818.00
2023-05-08T02:22:08.722Z,808.00
2023-05-08T02:23:08.673Z,816.00
2023-05-08T02:24:08.742Z,811.00
2023-05-08T02:25:08.753Z,810.00
2023-05-08T02:26:08.762Z,816.00
2023-05-08T02:27:08.774Z,808.00
2023-05-08T02:28:08.767Z,810.00
2023-05-08T02:29:08.767Z,813.00
2023-05-08T02:30:08.794Z,815.00
2023-05-08T02:31:08.802Z,812.00
2023-05-08T02:32:09.665Z,806.00
2023-05-08T02:33:08.873Z,811.00
2023-05-08T02:34:08.854Z,807.00
2023-05-08T02:35:08.889Z,813.00
2023-05-08T02:36:08.858Z,804.00
2023-05-08T02:37:08.882Z,813.00
2023-05-08T02:38:08.915Z,803.00
2023-05-08T02:39:08.907Z,808.00
2023-05-08T02:40:08.943Z,814.00
2023-05-08T02:41:08.936Z,807.00
2023-05-08T02:42:08.962Z,818.00
2023-05-08T02:43:08.976Z,813.00
2023-05-08T02:44:09.017Z,809.00
2023-05-08T02:45:09.033Z,812.00
2023-05-08T02:46:09.072Z,818.00
2023-05-08T02:47:09.072Z,810.00
2023-05-08T02:48:09.099Z,819.00
2023-05-08T02:49:09.100Z,809.00
2023-05-08T02:50:09.170Z,808.00
2023-05-08T02:51:09.137Z,810.00
2023-05-08T02:52:09.206Z,808.00
2023-05-08T02:53:09.179Z,813.00
2023-05-08T02:54:09.206Z,816.00
2023-05-08T02:55:09.209Z,814.00
2023-05-08T02:56:09.217Z,819.00
2023-05-08T02:57:09.222Z,815.00
2023-05-08T02:58:09.269Z,821.00
2023-05-08T02:59:09.247Z,813.00
2023-05-08T03:00:09.343Z,820.00
2023-05-08T03:01:09.315Z,809.00
2023-05-08T03:02:09.319Z,814.00
2023-05-08T03:03:09.378Z,821.00
2023-05-08T03:04:09.335Z,814.00
2023-05-08T03:05:09.623Z,815.00
2023-05-08T03:06:09.382Z,807.00
2023-05-08T03:07:09.373Z,822.00
2023-05-08T03:08:09.408Z,812.00
2023-05-08T03:09:09.434Z,814.00
2023-05-08T03:10:09.466Z,831.00
2023-05-08T03:11:09.498Z,814.00
2023-05-08T03:12:09.505Z,813.00
2023-05-08T03:13:09.550Z,806.00
2023-05-08T03:14:09.489Z,805.00
2023-05-08T03:15:09.544Z,824.00
2023-05-08T03:16:09.629Z,817.00
2023-05-08T03:17:09.558Z,818.00
2023-05-08T03:18:09.594Z,816.00
2023-05-08T03:19:09.628Z,818.00
2023-05-08T03:20:09.662Z,819.00
2023-05-08T03:21:09.630Z,819.00
2023-05-08T03:22:09.676Z,811.00
2023-05-08T03:23:09.697Z,812.00
2023-05-08T03:24:09.718Z,817.00
2023-05-08T03:25:09.713Z,821.00
2023-05-08T03:26:09.744Z,811.00
2023-05-08T03:27:10.148Z,825.00
2023-05-08T03:28:09.744Z,828.00
2023-05-08T03:29:09.775Z,819.00
2023-05-08T03:30:09.923Z,820.00
2023-05-08T03:31:09.846Z,822.00
2023-05-08T03:32:09.819Z,814.00
2023-05-08T03:33:09.873Z,823.00
2023-05-08T03:34:09.860Z,821.00
2023-05-08T03:35:09.924Z,807.00
2023-05-08T03:36:09.919Z,827.00
2023-05-08T03:37:09.922Z,814.00
2023-05-08T03:38:09.936Z,821.00
2023-05-08T03:39:09.986Z,817.00
2023-05-08T03:40:10.007Z,820.00
2023-05-08T03:41:10.026Z,808.00
2023-05-08T03:42:10.029Z,817.00
2023-05-08T03:43:10.040Z,816.00
2023-05-08T03:44:10.105Z,812.00
2023-05-08T03:45:10.046Z,821.00
2023-05-08T03:46:10.107Z,807.00
2023-05-08T03:47:10.147Z,810.00
2023-05-08T03:48:10.153Z,806.00
2023-05-08T03:49:10.152Z,814.00
2023-05-08T03:50:10.303Z,811.00
2023-05-08T03:51:10.166Z,817.00
2023-05-08T03:52:10.195Z,811.00
2023-05-08T03:53:10.201Z,812.00
2023-05-08T03:54:10.226Z,802.00
2023-05-08T03:55:10.237Z,806.00
2023-05-08T03:56:10.266Z,806.00
2023-05-08T03:57:10.269Z,817.00
2023-05-08T03:58:10.287Z,817.00
2023-05-08T03:59:10.276Z,809.00
2023-05-08T04:00:10.496Z,807.00
2023-05-08T04:01:10.313Z,802.00
2023-05-08T04:02:10.400Z,818.00
2023-05-08T04:03:10.497Z,813.00
2023-05-08T04:04:10.406Z,815.00
2023-05-08T04:05:10.681Z,816.00
2023-05-08T04:06:10.399Z,814.00
2023-05-08T04:07:10.426Z,811.00
2023-05-08T04:08:10.454Z,806.00
2023-05-08T04:09:10.454Z,811.00
2023-05-08T04:10:10.679Z,805.00
2023-05-08T04:11:10.495Z,803.00
2023-05-08T04:12:10.509Z,802.00
2023-05-08T04:13:10.560Z,807.00
2023-05-08T04:14:10.538Z,805.00
2023-05-08T04:15:10.562Z,808.00
2023-05-08T04:16:10.619Z,812.00
2023-05-08T04:17:10.780Z,796.00
2023-05-08T04:18:10.672Z,801.00
2023-05-08T04:19:10.675Z,817.00
2023-05-08T04:20:10.653Z,801.00
2023-05-08T04:21:10.669Z,806.00
2023-05-08T04:22:10.695Z,804.00
2023-05-08T04:23:10.716Z,802.00
2023-05-08T04:24:10.742Z,818.00
2023-05-08T04:25:11.222Z,812.00
2023-05-08T04:26:10.732Z,797.00
2023-05-08T04:27:10.803Z,808.00
2023-05-08T04:28:10.781Z,825.00
2023-05-08T04:29:10.790Z,800.00
2023-05-08T04:30:10.819Z,799.00
2023-05-08T04:31:10.818Z,810.00
2023-05-08T04:32:10.937Z,816.00
2023-05-08T04:33:10.973Z,800.00
2023-05-08T04:34:10.859Z,809.00
2023-05-08T04:35:11.459Z,803.00
2023-05-08T04:36:10.867Z,796.00
2023-05-08T04:37:10.916Z,804.00
2023-05-08T04:38:10.886Z,798.00
2023-05-08T04:39:10.920Z,787.00
2023-05-08T04:40:10.942Z,803.00
2023-05-08T04:41:10.959Z,818.00
2023-05-08T04:42:10.970Z,808.00
2023-05-08T04:43:10.989Z,813.00
2023-05-08T04:44:10.987Z,807.00
2023-05-08T04:45:11.212Z,808.00
2023-05-08T04:46:11.061Z,801.00
2023-05-08T04:47:11.050Z,805.00
2023-05-08T04:48:11.064Z,797.00
2023-05-08T04:49:11.102Z,819.00
2023-05-08T04:50:11.115Z,798.00
2023-05-08T04:51:11.092Z,795.00
2023-05-08T04:52:11.129Z,795.00
2023-05-08T04:53:11.120Z,816.00
2023-05-08T04:54:11.147Z,795.00
2023-05-08T04:55:11.368Z,800.00
2023-05-08T04:56:11.173Z,800.00
2023-05-08T04:57:11.200Z,779.00
2023-05-08T04:58:11.222Z,797.00
2023-05-08T04:59:11.227Z,794.00
2023-05-08T05:00:11.266Z,800.00
2023-05-08T05:01:11.385Z,796.00
2023-05-08T05:02:11.278Z,797.00
2023-05-08T05:03:11.407Z,799.00
2023-05-08T05:04:11.424Z,795.00
2023-05-08T05:05:11.714Z,797.00
2023-05-08T05:06:11.335Z,812.00
2023-05-08T05:07:11.389Z,794.00
2023-05-08T05:08:11.392Z,785.00
2023-05-08T05:09:11.379Z,796.00
2023-05-08T05:10:11.440Z,799.00
2023-05-08T05:11:11.411Z,794.00
2023-05-08T05:12:11.720Z,793.00
2023-05-08T05:13:11.499Z,798.00
2023-05-08T05:14:11.455Z,789.00
2023-05-08T05:15:11.583Z,805.00
2023-05-08T05:16:11.562Z,791.00
2023-05-08T05:17:11.526Z,795.00
2023-05-08T05:18:11.608Z,788.00
2023-05-08T05:19:11.636Z,785.00
2023-05-08T05:20:11.564Z,789.00
2023-05-08T05:21:11.592Z,779.00
2023-05-08T05:22:11.608Z,795.00
2023-05-08T05:23:11.622Z,787.00
2023-05-08T05:24:11.654Z,787.00
2023-05-08T05:25:11.992Z,785.00
2023-05-08T05:26:11.775Z,792.00
2023-05-08T05:27:11.694Z,781.00
2023-05-08T05:28:11.704Z,796.00
2023-05-08T05:29:11.739Z,794.00
2023-05-08T05:30:12.052Z,790.00
2023-05-08T05:31:11.768Z,790.00
2023-05-08T05:32:11.787Z,792.00
2023-05-08T05:33:11.842Z,788.00
2023-05-08T05:34:11.803Z,785.00
2023-05-08T05:35:12.048Z,778.00
2023-05-08T05:36:11.918Z,798.00
2023-05-08T05:37:11.914Z,802.00
2023-05-08T05:38:11.900Z,825.00
2023-05-08T05:39:11.932Z,850.00
2023-05-08T05:40:11.976Z,866.00
2023-05-08T05:41:11.946Z,939.00
2023-05-08T05:42:11.976Z,957.00
2023-05-08T05:43:11.980Z,982.00
2023-05-08T05:44:11.959Z,1009.00
2023-05-08T05:45:12.096Z,1040.00
2023-05-08T05:46:11.988Z,1048.00
2023-05-08T05:47:11.998Z,1074.00
2023-05-08T05:48:12.181Z,1103.00
2023-05-08T05:49:11.987Z,1133.00
2023-05-08T05:50:12.318Z,1166.00
2023-05-08T05:51:12.031Z,1174.00
2023-05-08T05:52:12.067Z,1182.00
2023-05-08T05:53:12.135Z,1206.00
2023-05-08T05:54:12.058Z,1224.00
2023-05-08T05:55:12.682Z,1266.00
2023-05-08T05:56:12.119Z,1285.00
2023-05-08T05:57:12.141Z,1293.00
2023-05-08T05:58:12.187Z,1320.00
2023-05-08T05:59:12.296Z,1341.00
2023-05-08T06:00:12.344Z,1338.00
2023-05-08T06:01:12.376Z,1358.00
2023-05-08T06:02:12.604Z,1380.00
2023-05-08T06:03:12.657Z,1391.00
2023-05-08T06:04:12.700Z,1414.00
2023-05-08T06:05:12.777Z,1472.00
2023-05-08T06:06:12.750Z,1492.00
2023-05-08T06:07:12.658Z,1510.00
2023-05-08T06:08:12.794Z,1533.00
2023-05-08T06:09:12.732Z,1550.00
2023-05-08T06:10:12.857Z,1573.00
2023-05-08T06:11:12.797Z,1609.00
2023-05-08T06:12:12.841Z,1629.00
2023-05-08T06:13:12.990Z,1655.00
2023-05-08T06:14:12.949Z,1666.00
2023-05-08T06:15:13.196Z,1687.00
2023-05-08T06:16:12.946Z,1693.00
2023-05-08T06:17:13.076Z,1714.00
2023-05-08T06:18:12.990Z,1729.00
2023-05-08T06:19:13.035Z,1745.00
2023-05-08T06:20:13.086Z,1764.00
2023-05-08T06:21:13.026Z,1792.00
2023-05-08T06:22:13.036Z,1792.00
2023-05-08T06:23:13.035Z,1823.00
2023-05-08T06:24:13.052Z,1864.00
2023-05-08T06:25:13.289Z,1931.00
2023-05-08T06:26:13.085Z,1934.00
2023-05-08T06:27:13.335Z,1921.00
2023-05-08T06:28:13.073Z,1922.00
2023-05-08T06:29:13.095Z,1925.00
2023-05-08T06:30:13.073Z,1931.00
2023-05-08T06:31:13.188Z,1941.00
2023-05-08T06:32:13.107Z,1953.00
2023-05-08T06:33:13.088Z,1977.00
2023-05-08T06:34:13.114Z,1979.00
2023-05-08T06:35:13.361Z,2001.00
2023-05-08T06:36:13.081Z,1961.00
2023-05-08T06:37:13.292Z,1865.00
2023-05-08T06:38:13.124Z,1742.00
2023-05-08T06:39:13.074Z,1578.00
2023-05-08T06:40:13.132Z,1483.00
2023-05-08T06:41:15.153Z,1422.00
2023-05-08T06:42:13.099Z,1325.00
2023-05-08T06:43:13.212Z,1398.00
2023-05-08T06:44:13.124Z,1304.00
2023-05-08T06:45:13.299Z,1260.00
2023-05-08T06:46:13.219Z,1292.00
2023-05-08T06:47:13.180Z,1273.00
2023-05-08T06:48:13.190Z,1183.00
2023-05-08T06:49:13.321Z,1162.00
2023-05-08T06:50:13.236Z,1094.00
2023-05-08T06:51:13.253Z,1090.00
2023-05-08T06:52:13.448Z,1084.00
2023-05-08T06:53:13.292Z,1072.00
2023-05-08T06:54:13.312Z,1054.00
2023-05-08T06:55:13.490Z,1040.00
2023-05-08T06:56:13.406Z,1038.00
2023-05-08T06:57:13.938Z,1028.00
2023-05-08T06:58:13.389Z,1018.00
2023-05-08T06:59:13.489Z,994.00
2023-05-08T07:00:13.527Z,982.00
2023-05-08T07:01:13.511Z,949.00
2023-05-08T07:02:13.511Z,984.00
2023-05-08T07:03:13.593Z,1007.00
2023-05-08T07:04:13.586Z,1023.00
2023-05-08T07:05:13.791Z,1039.00
2023-05-08T07:06:13.560Z,1074.00
2023-05-08T07:07:13.593Z,1062.00
2023-05-08T07:08:13.635Z,1092.00
2023-05-08T07:09:13.645Z,1098.00
2023-05-08T07:10:13.581Z,1105.00
2023-05-08T07:11:13.568Z,1109.00
2023-05-08T07:12:13.586Z,1131.00
2023-05-08T07:13:13.785Z,1155.00
2023-05-08T07:14:13.591Z,1164.00
2023-05-08T07:15:24.837Z,1178.00
2023-05-08T07:16:14.592Z,1179.00
2023-05-08T07:17:13.554Z,1131.00
2023-05-08T07:18:13.677Z,1082.00
2023-05-08T07:19:13.528Z,1071.00
2023-05-08T07:20:13.590Z,1026.00
2023-05-08T07:21:13.535Z,990.00
2023-05-08T07:22:13.559Z,945.00
2023-05-08T07:23:13.519Z,871.00
2023-05-08T07:24:13.505Z,818.00
2023-05-08T07:25:13.804Z,808.00
2023-05-08T07:26:13.484Z,746.00
2023-05-08T07:27:13.471Z,717.00
2023-05-08T07:28:13.529Z,700.00
2023-05-08T07:29:13.492Z,644.00
2023-05-08T07:30:13.469Z,644.00
2023-05-08T07:31:13.492Z,671.00
2023-05-08T07:32:13.461Z,643.00
2023-05-08T07:33:13.570Z,618.00
2023-05-08T07:34:13.477Z,614.00
2023-05-08T07:35:13.911Z,599.00
2023-05-08T07:36:14.250Z,601.00
2023-05-08T07:37:13.606Z,603.00
2023-05-08T07:38:13.751Z,618.00
2023-05-08T07:39:13.602Z,636.00
2023-05-08T07:40:13.685Z,645.00
2023-05-08T07:41:13.700Z,647.00
2023-05-08T07:42:13.636Z,642.00
2023-05-08T07:43:13.824Z,649.00
2023-05-08T07:44:13.796Z,663.00
2023-05-08T07:45:14.060Z,661.00
2023-05-08T07:46:13.723Z,644.00
2023-05-08T07:47:14.000Z,635.00
2023-05-08T07:48:13.847Z,631.00
2023-05-08T07:49:13.882Z,627.00
2023-05-08T07:50:13.845Z,630.00
2023-05-08T07:51:13.857Z,632.00
2023-05-08T07:52:13.882Z,645.00
2023-05-08T07:53:13.944Z,619.00
2023-05-08T07:54:13.959Z,627.00
2023-05-08T07:55:14.877Z,633.00
2023-05-08T07:56:14.003Z,631.00
2023-05-08T07:57:14.032Z,620.00
2023-05-08T07:58:14.079Z,627.00
2023-05-08T07:59:14.107Z,632.00
2023-05-08T08:00:14.145Z,640.00
2023-05-08T08:01:14.138Z,628.00
2023-05-08T08:02:14.213Z,629.00
2023-05-08T08:03:14.315Z,628.00
2023-05-08T08:04:15.420Z,624.00
2023-05-08T08:05:14.398Z,634.00
2023-05-08T08:06:14.238Z,630.00
2023-05-08T08:07:14.306Z,635.00
2023-05-08T08:08:14.324Z,629.00
2023-05-08T08:09:14.339Z,628.00
2023-05-08T08:10:14.376Z,631.00
2023-05-08T08:11:14.445Z,622.00
2023-05-08T08:12:14.439Z,617.00
2023-05-08T08:13:14.510Z,622.00
2023-05-08T08:14:14.515Z,636.00
2023-05-08T08:15:14.632Z,636.00
2023-05-08T08:16:14.521Z,642.00
2023-05-08T08:17:14.599Z,643.00
2023-05-08T08:18:14.607Z,649.00
2023-05-08T08:19:14.664Z,656.00
2023-05-08T08:20:14.630Z,646.00
2023-05-08T08:21:14.634Z,656.00
2023-05-08T08:22:14.672Z,650.00
2023-05-08T08:23:14.677Z,643.00
2023-05-08T08:24:14.722Z,652.00
2023-05-08T08:25:14.953Z,662.00
2023-05-08T08:26:14.743Z,677.00
2023-05-08T08:27:14.787Z,638.00
2023-05-08T08:28:14.804Z,604.00
2023-05-08T08:29:14.811Z,584.00
2023-05-08T08:30:18.062Z,576.00
2023-05-08T08:31:14.859Z,572.00
2023-05-08T08:32:14.843Z,550.00
2023-05-08T08:33:16.318Z,552.00
2023-05-08T08:34:14.911Z,547.00
2023-05-08T08:35:15.168Z,539.00
2023-05-08T08:36:14.871Z,534.00
2023-05-08T08:37:14.873Z,526.00
2023-05-08T08:38:14.825Z,519.00
2023-05-08T08:39:15.411Z,517.00
2023-05-08T08:40:14.854Z,513.00
2023-05-08T08:41:14.784Z,508.00
2023-05-08T08:42:14.814Z,537.00
2023-05-08T08:43:15.267Z,604.00
2023-05-08T08:44:14.792Z,628.00
2023-05-08T08:45:14.964Z,622.00
2023-05-08T08:46:14.860Z,628.00
2023-05-08T08:47:14.736Z,635.00
2023-05-08T08:48:14.774Z,645.00
2023-05-08T08:49:14.734Z,643.00
2023-05-08T08:50:15.254Z,663.00
2023-05-08T08:51:14.797Z,732.00
2023-05-08T08:52:14.743Z,764.00
2023-05-08T08:53:14.711Z,767.00
2023-05-08T08:54:14.713Z,787.00
2023-05-08T08:55:14.829Z,775.00
2023-05-08T08:56:14.713Z,785.00
2023-05-08T08:57:14.657Z,784.00
2023-05-08T08:58:14.793Z,798.00
2023-05-08T08:59:14.719Z,847.00
2023-05-08T09:00:14.647Z,891.00
2023-05-08T09:01:14.695Z,1058.00
2023-05-08T09:02:14.889Z,1123.00
2023-05-08T09:03:14.819Z,1073.00
2023-05-08T09:04:14.777Z,1042.00
2023-05-08T09:05:14.927Z,1045.00
2023-05-08T09:06:14.736Z,1055.00
2023-05-08T09:07:15.413Z,1009.00
2023-05-08T09:08:14.764Z,991.00
2023-05-08T09:09:14.805Z,979.00
2023-05-08T09:10:14.870Z,1004.00
2023-05-08T09:11:14.830Z,1021.00
2023-05-08T09:12:14.858Z,997.00
2023-05-08T09:13:15.232Z,1040.00
2023-05-08T09:14:14.926Z,1027.00
2023-05-08T09:15:15.183Z,952.00
2023-05-08T09:16:14.991Z,997.00
2023-05-08T09:17:14.949Z,1015.00
2023-05-08T09:18:14.996Z,1054.00
2023-05-08T09:19:14.970Z,1050.00
2023-05-08T09:20:15.248Z,1069.00
2023-05-08T09:21:15.348Z,1072.00
2023-05-08T09:22:15.032Z,1063.00
2023-05-08T09:23:15.134Z,1045.00
2023-05-08T09:24:15.078Z,1041.00
2023-05-08T09:25:16.021Z,1070.00
2023-05-08T09:26:15.063Z,1077.00
2023-05-08T09:27:15.071Z,1057.00
2023-05-08T09:28:15.081Z,1047.00
2023-05-08T09:29:15.079Z,1049.00
2023-05-08T09:30:15.112Z,1029.00
2023-05-08T09:31:15.185Z,1031.00
2023-05-08T09:32:15.258Z,1020.00
2023-05-08T09:33:15.905Z,1048.00
2023-05-08T09:34:15.118Z,1033.00
2023-05-08T09:35:15.340Z,1038.00
2023-05-08T09:36:15.304Z,1057.00
2023-05-08T09:37:15.174Z,1028.00
2023-05-08T09:38:15.126Z,992.00
2023-05-08T09:39:15.179Z,1000.00
2023-05-08T09:40:15.175Z,976.00
2023-05-08T09:41:15.946Z,974.00
2023-05-08T09:42:15.123Z,982.00
2023-05-08T09:43:15.335Z,939.00
2023-05-08T09:44:15.191Z,901.00
2023-05-08T09:45:15.360Z,877.00
2023-05-08T09:46:15.194Z,841.00
2023-05-08T09:47:15.157Z,818.00
2023-05-08T09:48:15.172Z,784.00
2023-05-08T09:49:15.147Z,748.00
2023-05-08T09:50:15.313Z,765.00
2023-05-08T09:51:15.145Z,757.00
2023-05-08T09:52:15.191Z,752.00
2023-05-08T09:53:15.351Z,749.00
2023-05-08T09:54:15.136Z,769.00
2023-05-08T09:55:15.219Z,764.00
2023-05-08T09:56:15.162Z,758.00
2023-05-08T09:57:15.161Z,783.00
2023-05-08T09:58:15.310Z,798.00
2023-05-08T09:59:15.143Z,772.00
2023-05-08T10:00:15.368Z,800.00
2023-05-08T10:01:15.272Z,800.00
2023-05-08T10:02:15.150Z,780.00
2023-05-08T10:03:15.160Z,767.00
2023-05-08T10:04:15.218Z,771.00
2023-05-08T10:05:15.146Z,738.00
2023-05-08T10:06:15.166Z,732.00
2023-05-08T10:07:15.173Z,667.00
2023-05-08T10:08:15.166Z,719.00
2023-05-08T10:09:15.159Z,725.00
2023-05-08T10:10:15.243Z,740.00
2023-05-08T10:11:15.221Z,755.00
2023-05-08T10:12:15.226Z,743.00
2023-05-08T10:13:15.150Z,754.00
2023-05-08T10:14:15.135Z,762.00
2023-05-08T10:15:15.171Z,755.00
2023-05-08T10:16:15.197Z,763.00
2023-05-08T10:17:15.202Z,742.00
2023-05-08T10:18:15.115Z,781.00
2023-05-08T10:19:15.110Z,772.00
2023-05-08T10:20:15.298Z,765.00
2023-05-08T10:21:15.185Z,798.00
2023-05-08T10:22:15.190Z,814.00
2023-05-08T10:23:15.241Z,845.00
2023-05-08T10:24:15.267Z,868.00
2023-05-08T10:25:15.344Z,834.00
2023-05-08T10:26:15.433Z,878.00
2023-05-08T10:27:15.520Z,864.00
2023-05-08T10:28:15.507Z,850.00
2023-05-08T10:29:15.695Z,882.00
2023-05-08T10:30:15.894Z,869.00
2023-05-08T10:31:15.842Z,889.00
2023-05-08T10:32:15.761Z,891.00
2023-05-08T10:33:15.814Z,915.00
2023-05-08T10:34:15.875Z,959.00
2023-05-08T10:35:16.009Z,921.00
2023-05-08T10:36:15.991Z,934.00
2023-05-08T10:37:16.070Z,922.00
2023-05-08T10:38:16.045Z,861.00
2023-05-08T10:39:16.053Z,752.00
2023-05-08T10:40:16.305Z,742.00
2023-05-08T10:41:16.145Z,743.00
2023-05-08T10:42:16.074Z,739.00
2023-05-08T10:43:16.164Z,736.00
2023-05-08T10:44:16.073Z,817.00
2023-05-08T10:45:16.050Z,800.00
2023-05-08T10:46:16.082Z,763.00
2023-05-08T10:47:16.839Z,916.00
2023-05-08T10:48:16.071Z,964.00
2023-05-08T10:49:16.101Z,871.00
2023-05-08T10:50:16.197Z,959.00
2023-05-08T10:51:16.097Z,971.00
2023-05-08T10:52:16.050Z,979.00
2023-05-08T10:53:16.069Z,979.00
2023-05-08T10:54:16.055Z,984.00
2023-05-08T10:55:16.063Z,972.00
2023-05-08T10:56:16.064Z,989.00
2023-05-08T10:57:16.067Z,996.00
2023-05-08T10:58:16.078Z,968.00
2023-05-08T10:59:16.007Z,967.00
2023-05-08T11:00:16.266Z,972.00
2023-05-08T11:01:16.160Z,993.00
2023-05-08T11:02:16.062Z,987.00
2023-05-08T11:03:29.946Z,982.00
2023-05-08T11:04:17.100Z,983.00
2023-05-08T11:05:16.041Z,989.00
2023-05-08T11:06:16.049Z,994.00
2023-05-08T11:07:16.003Z,994.00
2023-05-08T11:08:16.001Z,1011.00
2023-05-08T11:09:15.972Z,1031.00
2023-05-08T11:10:16.075Z,1047.00
2023-05-08T11:11:16.058Z,1049.00
2023-05-08T11:12:15.989Z,1029.00
2023-05-08T11:13:16.007Z,1036.00
2023-05-08T11:14:15.959Z,1039.00
2023-05-08T11:15:15.951Z,1043.00
2023-05-08T11:16:16.001Z,1053.00
2023-05-08T11:17:15.924Z,1059.00
2023-05-08T11:18:15.924Z,1055.00
2023-05-08T11:19:16.010Z,1049.00
2023-05-08T11:20:16.034Z,1042.00
2023-05-08T11:21:16.077Z,1007.00
2023-05-08T11:22:15.897Z,1030.00
2023-05-08T11:23:16.369Z,1043.00
2023-05-08T11:24:15.884Z,1047.00
2023-05-08T11:25:15.873Z,1036.00
2023-05-08T11:26:15.847Z,1040.00
2023-05-08T11:27:15.904Z,1058.00
2023-05-08T11:28:15.857Z,1071.00
2023-05-08T11:29:15.866Z,1071.00
2023-05-08T11:30:15.844Z,1069.00
2023-05-08T11:31:15.867Z,1069.00
2023-05-08T11:32:15.847Z,1070.00
2023-05-08T11:33:15.811Z,1082.00
2023-05-08T11:34:15.804Z,1084.00
2023-05-08T11:35:15.773Z,1076.00
2023-05-08T11:36:15.804Z,1081.00
2023-05-08T11:37:15.864Z,1064.00
2023-05-08T11:38:15.776Z,1062.00
2023-05-08T11:39:15.808Z,1064.00
2023-05-08T11:40:15.815Z,1057.00
2023-05-08T11:41:15.750Z,1050.00
2023-05-08T11:42:15.749Z,1046.00
2023-05-08T11:43:15.750Z,1029.00
2023-05-08T11:44:15.795Z,1037.00
2023-05-08T11:45:15.759Z,1029.00
2023-05-08T11:46:15.753Z,1021.00
2023-05-08T11:47:15.936Z,1031.00
2023-05-08T11:48:15.805Z,1019.00
2023-05-08T11:49:15.787Z,1012.00
2023-05-08T11:50:16.126Z,1007.00
2023-05-08T11:51:15.732Z,1012.00
2023-05-08T11:52:15.769Z,1007.00
2023-05-08T11:53:15.719Z,1011.00
2023-05-08T11:54:15.726Z,1012.00
2023-05-08T11:55:15.743Z,1024.00
2023-05-08T11:56:15.715Z,1001.00
2023-05-08T11:57:15.735Z,980.00
2023-05-08T11:58:15.779Z,907.00
2023-05-08T11:59:15.723Z,920.00
2023-05-08T12:00:15.929Z,939.00
2023-05-08T12:01:15.715Z,947.00
2023-05-08T12:02:15.739Z,933.00
2023-05-08T12:03:15.955Z,916.00
2023-05-08T12:04:15.841Z,914.00
2023-05-08T12:05:15.671Z,916.00
2023-05-08T12:06:15.692Z,914.00
2023-05-08T12:07:15.720Z,917.00
2023-05-08T12:08:15.728Z,909.00
2023-05-08T12:09:15.718Z,884.00
2023-05-08T12:10:16.443Z,901.00
2023-05-08T12:11:15.709Z,898.00
2023-05-08T12:12:15.701Z,839.00
2023-05-08T12:13:15.715Z,831.00
2023-05-08T12:14:15.694Z,778.00
2023-05-08T12:15:15.736Z,816.00
2023-05-08T12:16:15.704Z,812.00
2023-05-08T12:17:15.766Z,779.00
2023-05-08T12:18:15.797Z,796.00
2023-05-08T12:19:15.711Z,816.00
2023-05-08T12:20:16.330Z,797.00
2023-05-08T12:21:15.713Z,792.00
2023-05-08T12:22:15.718Z,805.00
2023-05-08T12:23:15.717Z,798.00